Manchester, MI

10:05 PM EDT on August 27, 2016 (GMT -0400)
Chuck's House | | Change Station

Elev 899 ft 42.15 °N, 84.03 °W | Updated 11 minutes ago

Overcast
Overcast
72.6 °F
Feels Like 72.6 °F
N
0.0
Wind Variable Wind from SE

Today
High -- | Low -- °F
--% Chance of Precip.
Yesterday
High -- | Low -- °F
Precip. -- in
Pressure 30.11 in
Visibility 10.0 miles
Clouds Overcast 500 ft
Dew Point 72 °F
Humidity 99%
Rainfall 0.63 in
Snow Depth Not available.
6:56 AM 8:17 PM
Waning Crescent, 19% visible
METAR KARB 280153Z AUTO 15004KT 10SM OVC005 22/22 A3012 RMK AO2 SLP194 T02220222
Pressure 30.11 in
Visibility 10.0 miles
Clouds Overcast 500 ft
Dew Point 72 °F
Humidity 99%
Rainfall 0.63 in
Snow Depth Not available.
6:56 AM 8:17 PM
Waning Crescent, 19% visible
METAR KARB 280153Z AUTO 15004KT 10SM OVC005 22/22 A3012 RMK AO2 SLP194 T02220222

10-Day Weather Forecast

Almanac

Astronomy

Aug. 27, 2016 Rise Set
Actual Time
Civil Twilight
Nautical Twilight
Astronomical Twilight
Moon
Length of Visible Light
Length of Day
Tomorrow will be .
, % of the Moon is Illuminated

Today's Extremes

State Highs State Lows

Community

WunderPhotos

Upload Photos

1,935,491 photos uploaded!

WunderBlog® & News

Nearby

Air Quality

  Air Quality AQ Index Pollutant
Not available.

Snow Depth

Station Depth Elevation

Earthquake Activity

City Distance Mag. Time & Date
Minimum magnitude displayed is 2.5.

Coastal Water Temperatures

Place Temperature

Stations

Nearby Weather Stations

Station Location Temp. Windchill Dew Point Humidity Wind Precip. Elev Updated Type
                   

Watches & Warnings

There are currently no watches in effect.